createdAt,value
2023-10-23T00:00:37.290Z,9.77
2023-10-23T00:03:40.416Z,10.82
2023-10-23T00:06:43.811Z,11.15
2023-10-23T00:09:46.913Z,10.03
2023-10-23T00:12:50.009Z,15.27
2023-10-23T00:15:53.141Z,14.65
2023-10-23T00:18:56.137Z,14.32
2023-10-23T00:21:59.321Z,11.75
2023-10-23T00:25:02.527Z,15.55
2023-10-23T00:28:05.652Z,10.07
2023-10-23T00:31:08.473Z,12.53
2023-10-23T00:34:11.702Z,9.77
2023-10-23T00:37:15.004Z,13.65
2023-10-23T00:40:18.200Z,12.97
2023-10-23T00:43:25.735Z,13.52
2023-10-23T00:46:30.385Z,11.75
2023-10-23T00:49:33.917Z,8.88
2023-10-23T00:52:36.996Z,10.20
2023-10-23T00:55:41.396Z,12.57
2023-10-23T00:58:44.523Z,13.18
2023-10-23T01:01:47.800Z,12.77
2023-10-23T01:04:51.896Z,12.02
2023-10-23T01:07:56.934Z,10.82
2023-10-23T01:11:00.929Z,12.87
2023-10-23T01:14:04.021Z,9.25
2023-10-23T01:17:06.824Z,10.80
2023-10-23T01:20:10.649Z,8.98
2023-10-23T01:23:13.811Z,10.52
2023-10-23T01:26:16.991Z,15.60
2023-10-23T01:29:20.093Z,9.77
2023-10-23T01:32:23.436Z,10.53
2023-10-23T01:35:26.574Z,9.13
2023-10-23T01:38:29.322Z,8.27
2023-10-23T01:41:32.429Z,10.40
2023-10-23T01:44:35.550Z,8.82
2023-10-23T01:47:39.065Z,13.32
2023-10-23T01:50:42.046Z,9.85
2023-10-23T01:53:44.939Z,12.13
2023-10-23T01:56:48.602Z,9.63
2023-10-23T01:59:51.398Z,13.00
2023-10-23T02:02:55.208Z,8.73
2023-10-23T02:05:58.194Z,11.20
2023-10-23T02:09:01.744Z,12.30
2023-10-23T02:12:08.222Z,8.87
2023-10-23T02:15:12.073Z,7.60
2023-10-23T02:18:14.769Z,15.50
2023-10-23T02:21:17.607Z,11.38
2023-10-23T02:24:21.017Z,10.30
2023-10-23T02:27:23.990Z,11.00
2023-10-23T02:30:27.151Z,11.80
2023-10-23T02:33:30.009Z,11.03
2023-10-23T02:36:33.502Z,10.55
2023-10-23T02:39:36.776Z,9.52
2023-10-23T02:42:39.916Z,11.00
2023-10-23T02:45:42.948Z,8.68
2023-10-23T02:48:46.019Z,15.60
2023-10-23T02:51:49.731Z,11.38
2023-10-23T02:54:52.643Z,10.75
2023-10-23T02:57:56.001Z,47.47
2023-10-23T03:00:59.197Z,21.13
2023-10-23T03:04:02.726Z,18.20
2023-10-23T03:07:06.026Z,17.80
2023-10-23T03:10:09.954Z,17.35
2023-10-23T03:13:13.119Z,15.33
2023-10-23T03:16:16.194Z,16.13
2023-10-23T03:19:20.981Z,12.82
2023-10-23T03:22:25.144Z,10.68
2023-10-23T03:25:27.929Z,14.60
2023-10-23T03:28:30.933Z,13.70
2023-10-23T03:31:34.393Z,14.13
2023-10-23T03:34:39.061Z,10.50
2023-10-23T03:37:41.903Z,11.10
2023-10-23T03:40:59.279Z,14.23
2023-10-23T03:44:03.427Z,10.53
2023-10-23T03:47:06.595Z,11.23
2023-10-23T03:50:09.860Z,9.70
2023-10-23T03:53:13.745Z,10.48
2023-10-23T03:56:16.962Z,8.80
2023-10-23T03:59:19.587Z,7.22
2023-10-23T04:02:22.507Z,8.23
2023-10-23T04:05:25.137Z,5.97
2023-10-23T04:08:28.205Z,6.30
2023-10-23T04:11:30.974Z,12.98
2023-10-23T04:14:34.011Z,9.97
2023-10-23T04:17:36.772Z,6.13
2023-10-23T04:20:39.602Z,7.78
2023-10-23T04:23:42.564Z,7.13
2023-10-23T04:26:45.430Z,5.78
2023-10-23T04:29:48.466Z,7.90
2023-10-23T04:32:51.525Z,7.25
2023-10-23T04:35:55.914Z,5.40
2023-10-23T04:38:58.623Z,8.65
2023-10-23T04:42:03.164Z,5.15
2023-10-23T04:45:07.082Z,9.57
2023-10-23T04:48:10.305Z,7.95
2023-10-23T04:51:13.145Z,7.85
2023-10-23T04:54:15.925Z,7.47
2023-10-23T04:57:18.693Z,6.57
2023-10-23T05:00:21.768Z,6.70
2023-10-23T05:03:25.063Z,8.65
2023-10-23T05:06:28.359Z,6.23
2023-10-23T05:09:31.914Z,7.32
2023-10-23T05:12:36.084Z,10.25
2023-10-23T05:15:38.946Z,8.00
2023-10-23T05:18:43.028Z,6.47
2023-10-23T05:21:46.136Z,5.43
2023-10-23T05:24:49.598Z,7.55
2023-10-23T05:27:52.655Z,5.60
2023-10-23T05:30:55.652Z,5.30
2023-10-23T05:33:58.977Z,5.30
2023-10-23T05:37:02.834Z,4.40
2023-10-23T05:40:06.588Z,4.75
2023-10-23T05:43:09.588Z,5.72
2023-10-23T05:46:12.884Z,6.00
2023-10-23T05:49:15.717Z,6.95
2023-10-23T05:52:18.485Z,5.78
2023-10-23T05:55:22.289Z,9.90
2023-10-23T05:58:25.280Z,6.20
2023-10-23T06:01:28.034Z,8.23
2023-10-23T06:04:31.260Z,7.45
2023-10-23T06:07:34.409Z,6.13
2023-10-23T06:10:44.244Z,6.68
2023-10-23T06:13:46.985Z,6.18
2023-10-23T06:16:49.861Z,6.37
2023-10-23T06:19:52.768Z,7.03
2023-10-23T06:22:55.550Z,8.30
2023-10-23T06:25:58.496Z,12.00
2023-10-23T06:29:01.337Z,11.73
2023-10-23T06:32:04.386Z,13.48
2023-10-23T06:35:26.009Z,8.50
2023-10-23T06:38:29.069Z,8.83
2023-10-23T06:41:33.468Z,10.88
2023-10-23T06:44:36.611Z,10.00
2023-10-23T06:47:39.692Z,9.53
2023-10-23T06:50:49.000Z,18.25
2023-10-23T06:53:52.173Z,11.88
2023-10-23T06:56:55.024Z,14.55
2023-10-23T06:59:57.955Z,10.65
2023-10-23T07:03:01.022Z,6.80
2023-10-23T07:06:06.203Z,6.35
2023-10-23T07:09:08.922Z,5.30
2023-10-23T07:12:12.306Z,5.47
2023-10-23T07:15:15.339Z,5.35
2023-10-23T07:18:18.967Z,6.27
2023-10-23T07:21:24.845Z,10.83
2023-10-23T07:24:27.683Z,7.60
2023-10-23T07:27:31.406Z,4.85
2023-10-23T07:30:36.578Z,5.03
2023-10-23T07:33:39.633Z,4.03
2023-10-23T07:36:43.137Z,4.80
2023-10-23T07:39:49.547Z,3.40
2023-10-23T07:42:53.924Z,4.97
2023-10-23T07:46:12.104Z,9.00
2023-10-23T07:49:19.467Z,5.20
2023-10-23T07:52:22.469Z,4.43
2023-10-23T07:55:25.237Z,5.93
2023-10-23T07:58:28.238Z,7.72
2023-10-23T08:01:31.133Z,8.27
2023-10-23T08:04:34.569Z,4.47
2023-10-23T08:07:37.607Z,11.43
2023-10-23T08:10:40.892Z,7.68
2023-10-23T08:13:44.275Z,5.22
2023-10-23T08:16:48.482Z,6.13
2023-10-23T08:19:51.773Z,5.00
2023-10-23T08:22:54.697Z,6.93
2023-10-23T08:25:57.805Z,7.32
2023-10-23T08:29:03.255Z,5.13
2023-10-23T08:32:06.614Z,6.70
2023-10-23T08:35:09.668Z,5.37
2023-10-23T08:38:12.480Z,7.03
2023-10-23T08:41:15.527Z,6.75
2023-10-23T08:44:18.828Z,6.15
2023-10-23T08:47:22.136Z,4.82
2023-10-23T08:50:26.638Z,11.97
2023-10-23T08:53:35.020Z,4.33
2023-10-23T08:56:40.167Z,6.75
2023-10-23T08:59:43.414Z,6.28
2023-10-23T09:02:51.513Z,6.15
2023-10-23T09:05:57.814Z,3.77
2023-10-23T09:09:01.212Z,9.40
2023-10-23T09:12:05.122Z,4.60
2023-10-23T09:15:19.024Z,5.53
2023-10-23T09:18:22.093Z,5.90
2023-10-23T09:21:25.365Z,8.23
2023-10-23T09:24:28.478Z,3.83
2023-10-23T09:27:31.578Z,10.15
2023-10-23T09:30:34.578Z,4.53
2023-10-23T09:33:37.578Z,7.30
2023-10-23T09:36:40.540Z,5.23
2023-10-23T09:39:46.180Z,3.30
2023-10-23T09:42:49.119Z,5.28
2023-10-23T09:45:53.680Z,4.85
2023-10-23T09:49:08.720Z,5.78
2023-10-23T09:52:12.911Z,4.20
2023-10-23T09:55:21.392Z,5.30
2023-10-23T09:58:27.821Z,9.98
2023-10-23T10:01:40.997Z,4.28
2023-10-23T10:05:01.545Z,4.43
2023-10-23T10:08:08.597Z,4.23
2023-10-23T10:11:12.302Z,6.67
2023-10-23T10:14:15.906Z,3.60
2023-10-23T10:17:21.945Z,6.47
2023-10-23T10:20:25.974Z,10.50
2023-10-23T10:23:30.009Z,8.37
2023-10-23T10:26:35.032Z,4.40
2023-10-23T10:29:38.443Z,4.90
2023-10-23T10:34:24.866Z,4.60
2023-10-23T10:36:07.476Z,4.40
2023-10-23T10:39:11.508Z,5.83
2023-10-23T10:42:40.803Z,4.63
2023-10-23T10:45:44.016Z,4.78
2023-10-23T10:48:49.135Z,5.53
2023-10-23T10:51:52.225Z,4.72
2023-10-23T10:55:01.847Z,3.83
2023-10-23T10:58:07.564Z,5.30
2023-10-23T11:01:11.425Z,5.57
2023-10-23T11:04:14.366Z,5.63
2023-10-23T11:07:27.675Z,4.85
2023-10-23T11:10:30.992Z,5.03
2023-10-23T11:13:34.650Z,3.83
2023-10-23T11:16:37.838Z,5.57
2023-10-23T11:19:45.461Z,4.65
2023-10-23T11:22:49.612Z,6.65
2023-10-23T11:25:55.788Z,4.23
2023-10-23T11:28:58.687Z,5.50
2023-10-23T11:32:01.496Z,6.90
2023-10-23T11:35:06.556Z,5.55
2023-10-23T11:38:16.780Z,7.65
2023-10-23T11:41:19.576Z,5.27
2023-10-23T11:44:22.608Z,4.27
2023-10-23T11:47:25.825Z,5.85
2023-10-23T11:50:29.039Z,4.03
2023-10-23T11:53:34.442Z,3.10
2023-10-23T11:56:38.240Z,6.43
2023-10-23T11:59:41.844Z,4.87
2023-10-23T12:02:46.232Z,3.22
2023-10-23T12:05:49.395Z,4.45
2023-10-23T12:08:52.555Z,3.92
2023-10-23T12:11:55.650Z,4.93
2023-10-23T12:14:58.460Z,3.43
2023-10-23T12:18:07.155Z,3.83
2023-10-23T12:21:10.108Z,3.28
2023-10-23T12:24:12.883Z,5.75
2023-10-23T12:27:16.253Z,3.77
2023-10-23T12:30:25.590Z,4.30
2023-10-23T12:33:37.405Z,3.55
2023-10-23T12:36:41.301Z,4.00
2023-10-23T12:39:44.402Z,4.07
2023-10-23T12:42:47.473Z,4.80
2023-10-23T12:45:50.571Z,2.80
2023-10-23T12:48:53.654Z,5.68
2023-10-23T12:51:56.473Z,5.03
2023-10-23T12:55:00.257Z,4.15
2023-10-23T12:58:04.198Z,3.07
2023-10-23T13:01:07.007Z,4.83
2023-10-23T13:04:09.937Z,4.93
2023-10-23T13:07:12.989Z,3.45
2023-10-23T13:10:16.373Z,10.38
2023-10-23T13:13:19.197Z,6.27
2023-10-23T13:16:23.802Z,4.77
2023-10-23T13:19:26.960Z,5.38
2023-10-23T13:22:31.506Z,4.25
2023-10-23T13:25:36.109Z,4.95
2023-10-23T13:28:38.921Z,5.33
2023-10-23T13:31:42.196Z,7.13
2023-10-23T13:34:45.833Z,4.85
2023-10-23T13:37:49.207Z,4.47
2023-10-23T13:40:53.147Z,1.90
2023-10-23T13:43:55.803Z,8.33
2023-10-23T13:46:58.797Z,6.20
2023-10-23T13:50:01.878Z,6.10
2023-10-23T13:53:05.960Z,5.72
2023-10-23T13:56:10.586Z,5.30
2023-10-23T13:59:13.625Z,5.07
2023-10-23T14:02:16.756Z,3.03
2023-10-23T14:05:19.927Z,5.47
2023-10-23T14:08:23.593Z,3.97
2023-10-23T14:11:59.452Z,3.67
2023-10-23T14:15:07.512Z,5.93
2023-10-23T14:18:11.920Z,4.10
2023-10-23T14:21:14.673Z,4.82
2023-10-23T14:24:20.971Z,5.20
2023-10-23T14:27:23.964Z,3.45
2023-10-23T14:30:27.991Z,4.87
2023-10-23T14:33:30.692Z,3.93
2023-10-23T14:36:33.757Z,4.38
2023-10-23T14:39:36.807Z,5.80
2023-10-23T14:42:40.191Z,7.15
2023-10-23T14:45:42.979Z,4.53
2023-10-23T14:48:48.137Z,3.47
2023-10-23T14:51:52.586Z,5.80
2023-10-23T14:54:55.650Z,5.63
2023-10-23T14:57:58.734Z,3.80
2023-10-23T15:01:01.918Z,6.87
2023-10-23T15:04:05.187Z,5.57
2023-10-23T15:07:08.319Z,3.25
2023-10-23T15:10:11.119Z,3.60
2023-10-23T15:13:14.231Z,4.00
2023-10-23T15:16:17.771Z,3.73
2023-10-23T15:19:20.711Z,5.07
2023-10-23T15:22:23.849Z,41.65
2023-10-23T15:25:27.138Z,9.50
2023-10-23T15:28:30.264Z,3.78
2023-10-23T15:31:33.887Z,11.50
2023-10-23T15:34:36.760Z,5.13
2023-10-23T15:37:39.520Z,7.20
2023-10-23T15:40:43.661Z,10.07
2023-10-23T15:43:49.068Z,8.88
2023-10-23T15:46:52.035Z,10.97
2023-10-23T15:49:55.151Z,10.70
2023-10-23T15:52:57.829Z,9.85
2023-10-23T15:56:04.348Z,11.10
2023-10-23T15:59:07.536Z,9.30
2023-10-23T16:02:12.025Z,7.22
2023-10-23T16:05:15.832Z,5.55
2023-10-23T16:08:19.251Z,7.28
2023-10-23T16:11:21.978Z,7.47
2023-10-23T16:14:26.670Z,3.60
2023-10-23T16:17:29.698Z,7.75
2023-10-23T16:20:34.143Z,6.60
2023-10-23T16:23:37.237Z,3.67
2023-10-23T16:26:40.336Z,13.85
2023-10-23T16:29:43.206Z,20.92
2023-10-23T16:32:46.968Z,30.75
2023-10-23T16:35:52.878Z,22.77
2023-10-23T16:38:56.580Z,22.37
2023-10-23T16:41:59.619Z,15.93
2023-10-23T16:45:02.890Z,11.90
2023-10-23T16:48:06.181Z,10.00
2023-10-23T16:51:09.201Z,16.03
2023-10-23T16:54:13.812Z,14.88
2023-10-23T16:57:17.178Z,15.10
2023-10-23T17:00:21.154Z,13.80
2023-10-23T17:03:26.435Z,10.52
2023-10-23T17:06:29.970Z,10.02
2023-10-23T17:09:33.934Z,14.55
2023-10-23T17:12:37.544Z,10.43
2023-10-23T17:15:45.227Z,12.00
2023-10-23T17:18:48.505Z,9.85
2023-10-23T17:21:52.771Z,7.57
2023-10-23T17:24:56.550Z,9.07
2023-10-23T17:28:02.868Z,8.52
2023-10-23T17:31:06.920Z,6.65
2023-10-23T17:34:11.019Z,6.57
2023-10-23T17:37:15.383Z,7.10
2023-10-23T17:40:22.197Z,7.85
2023-10-23T17:43:26.209Z,7.25
2023-10-23T17:46:34.972Z,9.20
2023-10-23T17:49:39.678Z,7.97
2023-10-23T17:52:45.049Z,11.15
2023-10-23T17:55:48.728Z,20.40
2023-10-23T17:58:57.233Z,11.87
2023-10-23T18:02:02.097Z,16.38
2023-10-23T18:05:06.169Z,16.90
2023-10-23T18:08:12.384Z,15.63
2023-10-23T18:11:17.024Z,13.77
2023-10-23T18:14:20.936Z,13.80
2023-10-23T18:17:25.803Z,13.57
2023-10-23T18:20:29.790Z,14.38
2023-10-23T18:23:35.632Z,14.00
2023-10-23T18:26:40.632Z,12.60
2023-10-23T18:29:45.634Z,13.95
2023-10-23T18:32:50.840Z,12.70
2023-10-23T18:36:02.686Z,15.57
2023-10-23T18:39:08.310Z,12.50
2023-10-23T18:42:14.389Z,13.67
2023-10-23T18:45:18.668Z,14.93
2023-10-23T18:48:24.722Z,13.82
2023-10-23T18:51:29.912Z,29.83
2023-10-23T18:54:36.527Z,26.97
2023-10-23T18:57:41.142Z,22.90
2023-10-23T19:00:46.235Z,33.00
2023-10-23T19:03:50.490Z,58.42
2023-10-23T19:06:56.743Z,51.70
2023-10-23T19:10:00.465Z,44.20
2023-10-23T19:13:03.915Z,23.08
2023-10-23T19:16:09.748Z,19.90
2023-10-23T19:19:14.170Z,18.58
2023-10-23T19:22:18.185Z,15.48
2023-10-23T19:25:23.237Z,20.27
2023-10-23T19:28:29.745Z,15.93
2023-10-23T19:31:34.820Z,19.90
2023-10-23T19:34:38.712Z,13.88
2023-10-23T19:37:43.386Z,14.60
2023-10-23T19:40:50.767Z,14.75
2023-10-23T19:43:54.695Z,13.80
2023-10-23T19:46:59.139Z,13.67
2023-10-23T19:50:05.043Z,15.63
2023-10-23T19:53:14.040Z,14.05
2023-10-23T19:56:18.842Z,13.90
2023-10-23T19:59:22.403Z,13.25
2023-10-23T20:02:26.606Z,11.55
2023-10-23T20:05:32.075Z,12.43
2023-10-23T20:08:35.844Z,19.20
2023-10-23T20:11:39.202Z,14.38
2023-10-23T20:14:42.580Z,47.80
2023-10-23T20:17:45.491Z,37.83
2023-10-23T20:20:54.990Z,46.30
2023-10-23T20:23:58.656Z,59.45
2023-10-23T20:27:01.755Z,40.72
2023-10-23T20:30:06.269Z,33.80
2023-10-23T20:33:09.120Z,29.52
2023-10-23T20:36:12.302Z,46.38
2023-10-23T20:39:15.429Z,50.03
2023-10-23T20:42:18.847Z,28.50
2023-10-23T20:45:22.104Z,19.52
2023-10-23T20:48:28.524Z,11.33
2023-10-23T20:51:31.455Z,11.23
2023-10-23T20:54:34.331Z,12.82
2023-10-23T20:57:37.402Z,16.45
2023-10-23T21:00:40.447Z,12.68
2023-10-23T21:03:43.307Z,11.07
2023-10-23T21:06:47.139Z,15.57
2023-10-23T21:09:51.696Z,12.07
2023-10-23T21:12:56.268Z,12.27
2023-10-23T21:15:59.134Z,12.77
2023-10-23T21:19:04.320Z,11.70
2023-10-23T21:22:07.471Z,10.30
2023-10-23T21:25:11.031Z,10.60
2023-10-23T21:28:14.134Z,11.07
2023-10-23T21:31:17.781Z,9.23
2023-10-23T21:34:21.050Z,18.60
2023-10-23T21:37:23.954Z,10.02
2023-10-23T21:40:26.928Z,6.67
2023-10-23T21:43:29.887Z,10.73
2023-10-23T21:46:33.430Z,8.55
2023-10-23T21:49:37.510Z,13.67
2023-10-23T21:52:40.584Z,10.95
2023-10-23T21:55:43.991Z,13.50
2023-10-23T21:59:09.069Z,9.90
2023-10-23T22:02:11.815Z,11.07
2023-10-23T22:05:15.148Z,12.07
2023-10-23T22:08:18.224Z,11.90
2023-10-23T22:11:21.364Z,13.40
2023-10-23T22:14:24.701Z,14.95
2023-10-23T22:17:27.816Z,15.40
2023-10-23T22:20:30.841Z,13.53
2023-10-23T22:23:33.966Z,14.63
2023-10-23T22:26:36.733Z,12.88
2023-10-23T22:29:39.869Z,14.63
2023-10-23T22:32:42.894Z,13.98
2023-10-23T22:35:46.018Z,10.88
2023-10-23T22:38:49.758Z,12.25
2023-10-23T22:41:53.311Z,13.50
2023-10-23T22:44:56.920Z,11.20
2023-10-23T22:47:59.941Z,9.23
2023-10-23T22:51:02.917Z,10.13
2023-10-23T22:54:06.291Z,9.25
2023-10-23T22:57:09.680Z,7.63
2023-10-23T23:00:13.712Z,12.32
2023-10-23T23:03:16.909Z,13.45
2023-10-23T23:06:20.383Z,10.10
2023-10-23T23:09:23.450Z,10.32
2023-10-23T23:12:26.688Z,18.53
2023-10-23T23:15:30.117Z,7.47
2023-10-23T23:18:37.414Z,7.10
2023-10-23T23:21:43.561Z,7.97
2023-10-23T23:24:46.601Z,8.13
2023-10-23T23:27:49.660Z,7.97
2023-10-23T23:30:52.718Z,10.85
2023-10-23T23:34:11.223Z,11.32
2023-10-23T23:37:14.297Z,7.18
2023-10-23T23:40:17.229Z,10.77
2023-10-23T23:43:20.378Z,10.43
2023-10-23T23:46:23.528Z,10.57
2023-10-23T23:49:28.458Z,7.57
2023-10-23T23:52:33.582Z,13.20
2023-10-23T23:55:36.835Z,9.00
2023-10-23T23:58:39.960Z,8.48
